sensor_id;sensor_type;location;lat;lon;timestamp;P1;durP1;ratioP1;P2;durP2;ratioP2
70342;SDS011;57767;42.068;24.752;2022-12-16T00:01:07;38.58;;;21.15;;
70342;SDS011;57767;42.068;24.752;2022-12-16T00:02:11;36.95;;;21.23;;
70342;SDS011;57767;42.068;24.752;2022-12-16T00:03:13;35.97;;;20.08;;
70342;SDS011;57767;42.068;24.752;2022-12-16T00:04:15;37.13;;;22.75;;
70342;SDS011;57767;42.068;24.752;2022-12-16T00:05:18;35.15;;;22.63;;
70342;SDS011;57767;42.068;24.752;2022-12-16T00:06:23;39.17;;;22.02;;
70342;SDS011;57767;42.068;24.752;2022-12-16T00:07:27;51.85;;;28.52;;
70342;SDS011;57767;42.068;24.752;2022-12-16T00:08:32;47.17;;;28.90;;
70342;SDS011;57767;42.068;24.752;2022-12-16T00:09:35;49.72;;;29.30;;
70342;SDS011;57767;42.068;24.752;2022-12-16T00:10:37;52.03;;;30.45;;
70342;SDS011;57767;42.068;24.752;2022-12-16T00:11:55;46.13;;;25.10;;
70342;SDS011;57767;42.068;24.752;2022-12-16T00:12:56;55.38;;;27.52;;
70342;SDS011;57767;42.068;24.752;2022-12-16T00:13:58;51.40;;;28.25;;
70342;SDS011;57767;42.068;24.752;2022-12-16T00:15:00;52.63;;;29.40;;
70342;SDS011;57767;42.068;24.752;2022-12-16T00:16:03;50.03;;;29.55;;
70342;SDS011;57767;42.068;24.752;2022-12-16T00:17:09;54.92;;;31.50;;
70342;SDS011;57767;42.068;24.752;2022-12-16T00:18:12;49.95;;;29.85;;
70342;SDS011;57767;42.068;24.752;2022-12-16T00:19:14;59.78;;;31.20;;
70342;SDS011;57767;42.068;24.752;2022-12-16T00:20:16;56.15;;;31.50;;
70342;SDS011;57767;42.068;24.752;2022-12-16T00:21:18;53.95;;;30.70;;
70342;SDS011;57767;42.068;24.752;2022-12-16T00:22:21;48.20;;;24.55;;
70342;SDS011;57767;42.068;24.752;2022-12-16T00:23:23;46.50;;;26.85;;
70342;SDS011;57767;42.068;24.752;2022-12-16T00:24:25;52.40;;;28.40;;
70342;SDS011;57767;42.068;24.752;2022-12-16T00:25:27;50.67;;;29.73;;
70342;SDS011;57767;42.068;24.752;2022-12-16T00:26:29;46.95;;;29.48;;
70342;SDS011;57767;42.068;24.752;2022-12-16T00:27:31;48.63;;;29.15;;
70342;SDS011;57767;42.068;24.752;2022-12-16T00:28:33;50.33;;;30.67;;
70342;SDS011;57767;42.068;24.752;2022-12-16T00:29:35;47.60;;;26.52;;
70342;SDS011;57767;42.068;24.752;2022-12-16T00:30:37;50.35;;;26.23;;
70342;SDS011;57767;42.068;24.752;2022-12-16T00:31:38;48.08;;;28.58;;
70342;SDS011;57767;42.068;24.752;2022-12-16T00:32:40;50.58;;;30.63;;
70342;SDS011;57767;42.068;24.752;2022-12-16T00:33:42;51.17;;;29.98;;
70342;SDS011;57767;42.068;24.752;2022-12-16T00:34:44;50.10;;;31.48;;
70342;SDS011;57767;42.068;24.752;2022-12-16T00:35:45;53.53;;;32.72;;
70342;SDS011;57767;42.068;24.752;2022-12-16T00:36:48;57.20;;;33.35;;
70342;SDS011;57767;42.068;24.752;2022-12-16T00:37:50;51.03;;;30.70;;
70342;SDS011;57767;42.068;24.752;2022-12-16T00:38:53;51.92;;;29.05;;
70342;SDS011;57767;42.068;24.752;2022-12-16T00:39:55;53.92;;;29.13;;
70342;SDS011;57767;42.068;24.752;2022-12-16T00:40:57;46.65;;;28.50;;
70342;SDS011;57767;42.068;24.752;2022-12-16T00:41:58;49.72;;;25.70;;
70342;SDS011;57767;42.068;24.752;2022-12-16T00:43:00;47.53;;;29.05;;
70342;SDS011;57767;42.068;24.752;2022-12-16T00:44:02;51.83;;;29.48;;
70342;SDS011;57767;42.068;24.752;2022-12-16T00:45:04;48.47;;;28.67;;
70342;SDS011;57767;42.068;24.752;2022-12-16T00:46:06;45.83;;;26.90;;
70342;SDS011;57767;42.068;24.752;2022-12-16T00:47:08;43.40;;;24.65;;
70342;SDS011;57767;42.068;24.752;2022-12-16T00:48:10;39.42;;;20.63;;
70342;SDS011;57767;42.068;24.752;2022-12-16T00:49:11;33.10;;;19.58;;
70342;SDS011;57767;42.068;24.752;2022-12-16T00:50:13;26.13;;;17.42;;
70342;SDS011;57767;42.068;24.752;2022-12-16T00:51:15;29.40;;;17.83;;
70342;SDS011;57767;42.068;24.752;2022-12-16T00:52:17;27.42;;;14.85;;
70342;SDS011;57767;42.068;24.752;2022-12-16T00:53:19;30.83;;;17.98;;
70342;SDS011;57767;42.068;24.752;2022-12-16T00:54:21;32.50;;;19.58;;
70342;SDS011;57767;42.068;24.752;2022-12-16T00:55:23;32.25;;;18.27;;
70342;SDS011;57767;42.068;24.752;2022-12-16T00:56:25;26.83;;;16.70;;
70342;SDS011;57767;42.068;24.752;2022-12-16T00:57:27;24.42;;;13.63;;
70342;SDS011;57767;42.068;24.752;2022-12-16T00:58:29;26.02;;;15.02;;
70342;SDS011;57767;42.068;24.752;2022-12-16T00:59:30;21.58;;;14.10;;
70342;SDS011;57767;42.068;24.752;2022-12-16T01:00:32;24.85;;;13.90;;
70342;SDS011;57767;42.068;24.752;2022-12-16T01:01:34;28.10;;;15.18;;
70342;SDS011;57767;42.068;24.752;2022-12-16T01:02:36;27.17;;;15.90;;
70342;SDS011;57767;42.068;24.752;2022-12-16T01:03:38;24.33;;;14.10;;
70342;SDS011;57767;42.068;24.752;2022-12-16T01:04:40;29.30;;;17.92;;
70342;SDS011;57767;42.068;24.752;2022-12-16T01:05:42;30.05;;;16.40;;
70342;SDS011;57767;42.068;24.752;2022-12-16T01:06:45;30.92;;;17.80;;
70342;SDS011;57767;42.068;24.752;2022-12-16T01:07:47;30.55;;;19.38;;
70342;SDS011;57767;42.068;24.752;2022-12-16T01:08:48;26.08;;;16.80;;
70342;SDS011;57767;42.068;24.752;2022-12-16T01:09:50;34.85;;;21.25;;
70342;SDS011;57767;42.068;24.752;2022-12-16T01:10:55;37.63;;;21.17;;
70342;SDS011;57767;42.068;24.752;2022-12-16T01:11:57;33.15;;;17.65;;
70342;SDS011;57767;42.068;24.752;2022-12-16T01:12:59;34.13;;;20.23;;
70342;SDS011;57767;42.068;24.752;2022-12-16T01:14:01;34.15;;;20.15;;
70342;SDS011;57767;42.068;24.752;2022-12-16T01:15:03;36.00;;;21.77;;
70342;SDS011;57767;42.068;24.752;2022-12-16T01:16:08;34.10;;;20.40;;
70342;SDS011;57767;42.068;24.752;2022-12-16T01:17:10;35.60;;;19.88;;
70342;SDS011;57767;42.068;24.752;2022-12-16T01:18:12;34.45;;;20.63;;
70342;SDS011;57767;42.068;24.752;2022-12-16T01:19:14;34.35;;;20.70;;
70342;SDS011;57767;42.068;24.752;2022-12-16T01:20:15;29.70;;;19.50;;
70342;SDS011;57767;42.068;24.752;2022-12-16T01:21:17;36.63;;;19.85;;
70342;SDS011;57767;42.068;24.752;2022-12-16T01:22:19;32.55;;;20.42;;
70342;SDS011;57767;42.068;24.752;2022-12-16T01:23:22;37.20;;;22.08;;
70342;SDS011;57767;42.068;24.752;2022-12-16T01:24:23;37.78;;;23.38;;
70342;SDS011;57767;42.068;24.752;2022-12-16T01:25:25;36.95;;;22.60;;
70342;SDS011;57767;42.068;24.752;2022-12-16T01:26:27;37.05;;;22.80;;
70342;SDS011;57767;42.068;24.752;2022-12-16T01:27:28;39.65;;;23.35;;
70342;SDS011;57767;42.068;24.752;2022-12-16T01:28:30;37.67;;;23.30;;
70342;SDS011;57767;42.068;24.752;2022-12-16T01:29:32;38.88;;;23.02;;
70342;SDS011;57767;42.068;24.752;2022-12-16T01:30:34;42.10;;;24.50;;
70342;SDS011;57767;42.068;24.752;2022-12-16T01:31:36;43.67;;;24.13;;
70342;SDS011;57767;42.068;24.752;2022-12-16T01:32:38;43.28;;;26.05;;
70342;SDS011;57767;42.068;24.752;2022-12-16T01:33:40;49.92;;;27.88;;
70342;SDS011;57767;42.068;24.752;2022-12-16T01:34:42;49.17;;;28.50;;
70342;SDS011;57767;42.068;24.752;2022-12-16T01:35:56;45.33;;;28.88;;
70342;SDS011;57767;42.068;24.752;2022-12-16T01:37:02;47.90;;;27.85;;
70342;SDS011;57767;42.068;24.752;2022-12-16T01:38:04;45.22;;;26.73;;
70342;SDS011;57767;42.068;24.752;2022-12-16T01:39:07;45.63;;;27.90;;
70342;SDS011;57767;42.068;24.752;2022-12-16T01:40:20;47.90;;;29.63;;
70342;SDS011;57767;42.068;24.752;2022-12-16T01:41:24;50.28;;;28.90;;
70342;SDS011;57767;42.068;24.752;2022-12-16T01:42:26;48.90;;;30.00;;
70342;SDS011;57767;42.068;24.752;2022-12-16T01:43:32;48.50;;;25.73;;
70342;SDS011;57767;42.068;24.752;2022-12-16T01:44:37;44.67;;;24.23;;
70342;SDS011;57767;42.068;24.752;2022-12-16T01:45:39;45.30;;;27.25;;
70342;SDS011;57767;42.068;24.752;2022-12-16T01:46:41;46.20;;;28.58;;
70342;SDS011;57767;42.068;24.752;2022-12-16T01:47:44;46.80;;;25.83;;
70342;SDS011;57767;42.068;24.752;2022-12-16T01:51:06;35.08;;;20.08;;
70342;SDS011;57767;42.068;24.752;2022-12-16T01:52:31;40.67;;;20.88;;
70342;SDS011;57767;42.068;24.752;2022-12-16T01:53:37;37.30;;;20.80;;
70342;SDS011;57767;42.068;24.752;2022-12-16T01:54:44;38.63;;;22.88;;
70342;SDS011;57767;42.068;24.752;2022-12-16T01:55:50;36.50;;;21.95;;
70342;SDS011;57767;42.068;24.752;2022-12-16T01:56:55;36.50;;;20.90;;
70342;SDS011;57767;42.068;24.752;2022-12-16T01:58:14;41.22;;;24.65;;
70342;SDS011;57767;42.068;24.752;2022-12-16T01:59:19;41.45;;;20.25;;
70342;SDS011;57767;42.068;24.752;2022-12-16T02:00:24;39.63;;;24.40;;
70342;SDS011;57767;42.068;24.752;2022-12-16T02:01:26;38.60;;;22.00;;
70342;SDS011;57767;42.068;24.752;2022-12-16T02:02:28;43.25;;;26.15;;
70342;SDS011;57767;42.068;24.752;2022-12-16T02:03:31;43.22;;;24.98;;
70342;SDS011;57767;42.068;24.752;2022-12-16T02:04:36;44.03;;;26.67;;
70342;SDS011;57767;42.068;24.752;2022-12-16T02:07:00;38.58;;;22.25;;
70342;SDS011;57767;42.068;24.752;2022-12-16T02:09:06;34.50;;;21.98;;
70342;SDS011;57767;42.068;24.752;2022-12-16T02:10:11;35.13;;;21.65;;
70342;SDS011;57767;42.068;24.752;2022-12-16T02:12:33;42.30;;;22.63;;
70342;SDS011;57767;42.068;24.752;2022-12-16T02:14:03;44.25;;;23.55;;
70342;SDS011;57767;42.068;24.752;2022-12-16T02:16:58;40.70;;;24.00;;
70342;SDS011;57767;42.068;24.752;2022-12-16T02:20:09;42.30;;;23.85;;
70342;SDS011;57767;42.068;24.752;2022-12-16T02:22:26;34.30;;;19.02;;
70342;SDS011;57767;42.068;24.752;2022-12-16T02:26:58;41.10;;;20.77;;
70342;SDS011;57767;42.068;24.752;2022-12-16T02:38:29;36.47;;;21.52;;
70342;SDS011;57767;42.068;24.752;2022-12-16T02:39:19;38.65;;;21.05;;
70342;SDS011;57767;42.068;24.752;2022-12-16T02:40:26;44.90;;;23.42;;
70342;SDS011;57767;42.068;24.752;2022-12-16T02:44:34;46.13;;;25.98;;
70342;SDS011;57767;42.068;24.752;2022-12-16T02:45:57;49.70;;;25.65;;
70342;SDS011;57767;42.068;24.752;2022-12-16T02:46:59;44.85;;;22.60;;
70342;SDS011;57767;42.068;24.752;2022-12-16T02:48:01;47.08;;;27.48;;
70342;SDS011;57767;42.068;24.752;2022-12-16T02:49:04;43.90;;;25.25;;
70342;SDS011;57767;42.068;24.752;2022-12-16T02:50:17;45.13;;;26.02;;
70342;SDS011;57767;42.068;24.752;2022-12-16T02:51:25;40.20;;;20.20;;
70342;SDS011;57767;42.068;24.752;2022-12-16T02:52:31;40.10;;;23.98;;
70342;SDS011;57767;42.068;24.752;2022-12-16T02:53:35;37.55;;;18.88;;
70342;SDS011;57767;42.068;24.752;2022-12-16T02:54:39;42.30;;;22.83;;
70342;SDS011;57767;42.068;24.752;2022-12-16T02:56:35;40.40;;;23.60;;
70342;SDS011;57767;42.068;24.752;2022-12-16T03:01:39;46.42;;;27.77;;
70342;SDS011;57767;42.068;24.752;2022-12-16T03:03:47;46.40;;;25.23;;
70342;SDS011;57767;42.068;24.752;2022-12-16T03:05:01;41.78;;;24.58;;
70342;SDS011;57767;42.068;24.752;2022-12-16T03:06:13;45.45;;;27.05;;
70342;SDS011;57767;42.068;24.752;2022-12-16T03:07:18;41.33;;;24.27;;
70342;SDS011;57767;42.068;24.752;2022-12-16T03:08:28;45.25;;;28.25;;
70342;SDS011;57767;42.068;24.752;2022-12-16T03:09:37;46.90;;;27.33;;
70342;SDS011;57767;42.068;24.752;2022-12-16T03:10:42;46.83;;;26.15;;
70342;SDS011;57767;42.068;24.752;2022-12-16T03:11:46;45.38;;;27.88;;
70342;SDS011;57767;42.068;24.752;2022-12-16T03:12:50;49.28;;;28.40;;
70342;SDS011;57767;42.068;24.752;2022-12-16T03:13:54;40.47;;;22.17;;
70342;SDS011;57767;42.068;24.752;2022-12-16T03:14:57;44.67;;;25.27;;
70342;SDS011;57767;42.068;24.752;2022-12-16T03:15:59;43.63;;;25.25;;
70342;SDS011;57767;42.068;24.752;2022-12-16T03:17:02;44.55;;;24.75;;
70342;SDS011;57767;42.068;24.752;2022-12-16T03:18:06;37.47;;;22.52;;
70342;SDS011;57767;42.068;24.752;2022-12-16T03:19:10;44.25;;;28.05;;
70342;SDS011;57767;42.068;24.752;2022-12-16T03:20:14;45.70;;;25.95;;
70342;SDS011;57767;42.068;24.752;2022-12-16T03:21:20;42.30;;;23.02;;
70342;SDS011;57767;42.068;24.752;2022-12-16T03:22:29;44.53;;;27.67;;
70342;SDS011;57767;42.068;24.752;2022-12-16T03:23:37;36.90;;;20.48;;
70342;SDS011;57767;42.068;24.752;2022-12-16T03:24:48;41.20;;;22.35;;
70342;SDS011;57767;42.068;24.752;2022-12-16T03:25:50;42.80;;;25.55;;
70342;SDS011;57767;42.068;24.752;2022-12-16T03:28:05;44.90;;;25.10;;
70342;SDS011;57767;42.068;24.752;2022-12-16T03:29:23;47.53;;;26.98;;
70342;SDS011;57767;42.068;24.752;2022-12-16T03:30:32;41.88;;;23.83;;
70342;SDS011;57767;42.068;24.752;2022-12-16T03:31:45;39.28;;;21.10;;
70342;SDS011;57767;42.068;24.752;2022-12-16T03:33:07;47.40;;;26.27;;
70342;SDS011;57767;42.068;24.752;2022-12-16T03:34:20;45.08;;;25.55;;
70342;SDS011;57767;42.068;24.752;2022-12-16T03:35:38;48.92;;;29.15;;
70342;SDS011;57767;42.068;24.752;2022-12-16T03:36:51;47.90;;;28.83;;
70342;SDS011;57767;42.068;24.752;2022-12-16T03:37:57;51.25;;;26.85;;
70342;SDS011;57767;42.068;24.752;2022-12-16T03:39:03;49.08;;;28.33;;
70342;SDS011;57767;42.068;24.752;2022-12-16T03:40:08;49.95;;;30.23;;
70342;SDS011;57767;42.068;24.752;2022-12-16T03:41:13;55.00;;;30.58;;
70342;SDS011;57767;42.068;24.752;2022-12-16T03:42:17;46.47;;;29.00;;
70342;SDS011;57767;42.068;24.752;2022-12-16T03:43:19;54.17;;;30.42;;
70342;SDS011;57767;42.068;24.752;2022-12-16T03:44:22;50.25;;;29.63;;
70342;SDS011;57767;42.068;24.752;2022-12-16T03:45:26;49.65;;;28.67;;
70342;SDS011;57767;42.068;24.752;2022-12-16T03:46:31;47.65;;;26.95;;
70342;SDS011;57767;42.068;24.752;2022-12-16T03:47:33;47.90;;;28.20;;
70342;SDS011;57767;42.068;24.752;2022-12-16T03:48:34;54.13;;;31.45;;
70342;SDS011;57767;42.068;24.752;2022-12-16T03:49:36;47.10;;;31.05;;
70342;SDS011;57767;42.068;24.752;2022-12-16T03:50:38;50.95;;;30.08;;
70342;SDS011;57767;42.068;24.752;2022-12-16T03:51:40;54.70;;;30.77;;
70342;SDS011;57767;42.068;24.752;2022-12-16T03:52:42;49.03;;;28.08;;
70342;SDS011;57767;42.068;24.752;2022-12-16T03:53:44;53.25;;;28.80;;
70342;SDS011;57767;42.068;24.752;2022-12-16T03:54:46;52.42;;;29.08;;
70342;SDS011;57767;42.068;24.752;2022-12-16T03:55:47;50.15;;;28.88;;
70342;SDS011;57767;42.068;24.752;2022-12-16T03:56:49;51.47;;;30.08;;
70342;SDS011;57767;42.068;24.752;2022-12-16T03:57:51;49.17;;;30.10;;
70342;SDS011;57767;42.068;24.752;2022-12-16T03:58:53;51.38;;;29.00;;
70342;SDS011;57767;42.068;24.752;2022-12-16T03:59:54;47.80;;;28.98;;
70342;SDS011;57767;42.068;24.752;2022-12-16T04:00:56;53.58;;;31.48;;
70342;SDS011;57767;42.068;24.752;2022-12-16T04:01:58;53.88;;;31.83;;
70342;SDS011;57767;42.068;24.752;2022-12-16T04:03:00;49.60;;;30.27;;
70342;SDS011;57767;42.068;24.752;2022-12-16T04:04:02;47.75;;;28.73;;
70342;SDS011;57767;42.068;24.752;2022-12-16T04:05:04;47.33;;;27.67;;
70342;SDS011;57767;42.068;24.752;2022-12-16T04:06:06;48.90;;;27.20;;
70342;SDS011;57767;42.068;24.752;2022-12-16T04:07:08;42.97;;;26.10;;
70342;SDS011;57767;42.068;24.752;2022-12-16T04:08:25;44.45;;;27.27;;
70342;SDS011;57767;42.068;24.752;2022-12-16T04:09:26;44.03;;;27.00;;
70342;SDS011;57767;42.068;24.752;2022-12-16T04:10:28;43.72;;;26.38;;
70342;SDS011;57767;42.068;24.752;2022-12-16T04:11:48;45.65;;;27.42;;
70342;SDS011;57767;42.068;24.752;2022-12-16T04:13:09;50.10;;;27.52;;
70342;SDS011;57767;42.068;24.752;2022-12-16T04:14:29;42.47;;;26.85;;
70342;SDS011;57767;42.068;24.752;2022-12-16T04:15:54;45.00;;;26.60;;
70342;SDS011;57767;42.068;24.752;2022-12-16T04:17:15;42.10;;;26.42;;
70342;SDS011;57767;42.068;24.752;2022-12-16T04:18:35;42.25;;;23.80;;
70342;SDS011;57767;42.068;24.752;2022-12-16T04:19:56;43.67;;;25.50;;
70342;SDS011;57767;42.068;24.752;2022-12-16T04:21:17;36.80;;;21.67;;
70342;SDS011;57767;42.068;24.752;2022-12-16T04:22:38;38.20;;;24.52;;
70342;SDS011;57767;42.068;24.752;2022-12-16T04:24:10;36.47;;;23.08;;
70342;SDS011;57767;42.068;24.752;2022-12-16T04:25:21;41.10;;;21.25;;
70342;SDS011;57767;42.068;24.752;2022-12-16T04:26:26;48.00;;;26.83;;
70342;SDS011;57767;42.068;24.752;2022-12-16T04:27:27;41.92;;;26.58;;
70342;SDS011;57767;42.068;24.752;2022-12-16T04:28:29;44.55;;;24.55;;
70342;SDS011;57767;42.068;24.752;2022-12-16T04:29:31;40.42;;;23.80;;
70342;SDS011;57767;42.068;24.752;2022-12-16T04:30:34;47.40;;;28.60;;
70342;SDS011;57767;42.068;24.752;2022-12-16T04:31:35;43.97;;;27.25;;
70342;SDS011;57767;42.068;24.752;2022-12-16T04:32:37;42.40;;;21.80;;
70342;SDS011;57767;42.068;24.752;2022-12-16T04:33:57;44.47;;;27.48;;
70342;SDS011;57767;42.068;24.752;2022-12-16T04:35:18;45.20;;;28.17;;
70342;SDS011;57767;42.068;24.752;2022-12-16T04:36:39;46.38;;;26.58;;
70342;SDS011;57767;42.068;24.752;2022-12-16T04:38:07;44.78;;;26.65;;
70342;SDS011;57767;42.068;24.752;2022-12-16T04:39:27;47.78;;;27.77;;
70342;SDS011;57767;42.068;24.752;2022-12-16T04:40:47;50.58;;;29.30;;
70342;SDS011;57767;42.068;24.752;2022-12-16T04:42:21;47.97;;;29.33;;
70342;SDS011;57767;42.068;24.752;2022-12-16T04:43:42;56.05;;;28.42;;
70342;SDS011;57767;42.068;24.752;2022-12-16T04:45:03;44.92;;;25.13;;
70342;SDS011;57767;42.068;24.752;2022-12-16T04:46:23;47.30;;;24.98;;
70342;SDS011;57767;42.068;24.752;2022-12-16T04:47:44;46.65;;;25.33;;
70342;SDS011;57767;42.068;24.752;2022-12-16T04:49:04;46.72;;;24.42;;
70342;SDS011;57767;42.068;24.752;2022-12-16T04:50:24;49.80;;;28.40;;
70342;SDS011;57767;42.068;24.752;2022-12-16T04:51:45;54.00;;;27.92;;
70342;SDS011;57767;42.068;24.752;2022-12-16T04:53:06;45.97;;;26.10;;
70342;SDS011;57767;42.068;24.752;2022-12-16T04:54:26;44.60;;;24.27;;
70342;SDS011;57767;42.068;24.752;2022-12-16T04:55:46;47.35;;;24.75;;
70342;SDS011;57767;42.068;24.752;2022-12-16T04:57:06;45.45;;;24.85;;
70342;SDS011;57767;42.068;24.752;2022-12-16T04:58:26;47.63;;;26.48;;
70342;SDS011;57767;42.068;24.752;2022-12-16T04:59:46;49.03;;;26.08;;
70342;SDS011;57767;42.068;24.752;2022-12-16T05:01:07;47.83;;;26.60;;
70342;SDS011;57767;42.068;24.752;2022-12-16T05:02:27;44.80;;;23.23;;
70342;SDS011;57767;42.068;24.752;2022-12-16T05:03:47;42.72;;;24.27;;
70342;SDS011;57767;42.068;24.752;2022-12-16T05:05:08;45.15;;;26.42;;
70342;SDS011;57767;42.068;24.752;2022-12-16T05:06:28;49.05;;;28.45;;
70342;SDS011;57767;42.068;24.752;2022-12-16T05:07:48;48.78;;;27.77;;
70342;SDS011;57767;42.068;24.752;2022-12-16T05:09:08;46.92;;;26.92;;
70342;SDS011;57767;42.068;24.752;2022-12-16T05:10:29;54.05;;;30.48;;
70342;SDS011;57767;42.068;24.752;2022-12-16T05:11:49;46.60;;;24.95;;
70342;SDS011;57767;42.068;24.752;2022-12-16T05:13:10;57.78;;;29.55;;
70342;SDS011;57767;42.068;24.752;2022-12-16T05:14:31;47.22;;;28.02;;
70342;SDS011;57767;42.068;24.752;2022-12-16T05:15:51;52.08;;;28.83;;
70342;SDS011;57767;42.068;24.752;2022-12-16T05:17:11;51.55;;;28.98;;
70342;SDS011;57767;42.068;24.752;2022-12-16T05:18:32;50.42;;;30.38;;
70342;SDS011;57767;42.068;24.752;2022-12-16T05:20:12;49.38;;;28.98;;
70342;SDS011;57767;42.068;24.752;2022-12-16T05:21:33;57.50;;;30.13;;
70342;SDS011;57767;42.068;24.752;2022-12-16T05:22:54;50.50;;;30.13;;
70342;SDS011;57767;42.068;24.752;2022-12-16T05:24:15;65.68;;;38.70;;
70342;SDS011;57767;42.068;24.752;2022-12-16T05:25:35;66.28;;;38.15;;
70342;SDS011;57767;42.068;24.752;2022-12-16T05:26:56;58.78;;;34.90;;
70342;SDS011;57767;42.068;24.752;2022-12-16T05:28:16;67.22;;;38.55;;
70342;SDS011;57767;42.068;24.752;2022-12-16T05:29:37;64.30;;;39.53;;
70342;SDS011;57767;42.068;24.752;2022-12-16T05:30:57;59.92;;;38.03;;
70342;SDS011;57767;42.068;24.752;2022-12-16T05:32:18;60.40;;;31.15;;
70342;SDS011;57767;42.068;24.752;2022-12-16T05:33:38;60.58;;;36.97;;
70342;SDS011;57767;42.068;24.752;2022-12-16T05:34:58;102.03;;;52.45;;
70342;SDS011;57767;42.068;24.752;2022-12-16T05:36:35;86.50;;;42.70;;
70342;SDS011;57767;42.068;24.752;2022-12-16T05:37:56;68.75;;;38.20;;
70342;SDS011;57767;42.068;24.752;2022-12-16T05:39:16;69.03;;;39.22;;
70342;SDS011;57767;42.068;24.752;2022-12-16T05:40:36;59.30;;;39.15;;
70342;SDS011;57767;42.068;24.752;2022-12-16T05:41:56;65.30;;;40.63;;
70342;SDS011;57767;42.068;24.752;2022-12-16T05:43:16;67.90;;;39.72;;
70342;SDS011;57767;42.068;24.752;2022-12-16T05:44:36;55.72;;;36.50;;
70342;SDS011;57767;42.068;24.752;2022-12-16T05:45:56;58.90;;;37.08;;
70342;SDS011;57767;42.068;24.752;2022-12-16T05:47:17;60.58;;;35.35;;
70342;SDS011;57767;42.068;24.752;2022-12-16T05:48:37;60.60;;;35.55;;
70342;SDS011;57767;42.068;24.752;2022-12-16T05:49:58;49.60;;;28.05;;
70342;SDS011;57767;42.068;24.752;2022-12-16T05:51:18;50.33;;;31.35;;
70342;SDS011;57767;42.068;24.752;2022-12-16T05:52:38;58.38;;;35.33;;
70342;SDS011;57767;42.068;24.752;2022-12-16T05:53:59;58.85;;;34.80;;
70342;SDS011;57767;42.068;24.752;2022-12-16T05:55:19;58.88;;;34.33;;
70342;SDS011;57767;42.068;24.752;2022-12-16T05:56:40;56.15;;;34.85;;
70342;SDS011;57767;42.068;24.752;2022-12-16T05:58:00;59.47;;;34.53;;
70342;SDS011;57767;42.068;24.752;2022-12-16T05:59:21;56.70;;;32.70;;
70342;SDS011;57767;42.068;24.752;2022-12-16T06:00:42;50.33;;;29.42;;
70342;SDS011;57767;42.068;24.752;2022-12-16T06:02:03;65.05;;;38.92;;
70342;SDS011;57767;42.068;24.752;2022-12-16T06:03:24;52.58;;;34.22;;
70342;SDS011;57767;42.068;24.752;2022-12-16T06:04:44;61.75;;;37.55;;
70342;SDS011;57767;42.068;24.752;2022-12-16T06:06:04;56.75;;;35.42;;
70342;SDS011;57767;42.068;24.752;2022-12-16T06:07:24;60.00;;;35.70;;
70342;SDS011;57767;42.068;24.752;2022-12-16T06:08:45;54.28;;;29.05;;
70342;SDS011;57767;42.068;24.752;2022-12-16T06:10:06;54.53;;;33.58;;
70342;SDS011;57767;42.068;24.752;2022-12-16T06:11:26;58.67;;;34.80;;
70342;SDS011;57767;42.068;24.752;2022-12-16T06:12:47;54.40;;;33.53;;
70342;SDS011;57767;42.068;24.752;2022-12-16T06:14:07;54.60;;;34.00;;
70342;SDS011;57767;42.068;24.752;2022-12-16T06:15:27;55.38;;;33.75;;
70342;SDS011;57767;42.068;24.752;2022-12-16T06:16:47;62.03;;;37.55;;
70342;SDS011;57767;42.068;24.752;2022-12-16T06:18:07;58.80;;;36.63;;
70342;SDS011;57767;42.068;24.752;2022-12-16T06:19:28;64.50;;;40.00;;
70342;SDS011;57767;42.068;24.752;2022-12-16T06:20:48;59.55;;;37.00;;
70342;SDS011;57767;42.068;24.752;2022-12-16T06:22:08;58.20;;;35.33;;
70342;SDS011;57767;42.068;24.752;2022-12-16T06:23:29;58.58;;;33.58;;
70342;SDS011;57767;42.068;24.752;2022-12-16T06:24:49;54.55;;;33.47;;
70342;SDS011;57767;42.068;24.752;2022-12-16T06:26:10;46.60;;;28.27;;
70342;SDS011;57767;42.068;24.752;2022-12-16T06:27:30;53.60;;;31.90;;
70342;SDS011;57767;42.068;24.752;2022-12-16T06:28:51;51.72;;;31.50;;
70342;SDS011;57767;42.068;24.752;2022-12-16T06:30:11;53.92;;;32.50;;
70342;SDS011;57767;42.068;24.752;2022-12-16T06:31:32;67.85;;;36.00;;
70342;SDS011;57767;42.068;24.752;2022-12-16T06:32:52;67.88;;;38.83;;
70342;SDS011;57767;42.068;24.752;2022-12-16T06:34:13;68.37;;;39.67;;
70342;SDS011;57767;42.068;24.752;2022-12-16T06:35:33;73.32;;;39.22;;
70342;SDS011;57767;42.068;24.752;2022-12-16T06:36:54;66.88;;;39.20;;
70342;SDS011;57767;42.068;24.752;2022-12-16T06:38:14;63.22;;;38.15;;
70342;SDS011;57767;42.068;24.752;2022-12-16T06:39:35;61.58;;;36.95;;
70342;SDS011;57767;42.068;24.752;2022-12-16T06:40:55;61.75;;;38.97;;
70342;SDS011;57767;42.068;24.752;2022-12-16T06:42:16;63.35;;;36.30;;
70342;SDS011;57767;42.068;24.752;2022-12-16T06:43:36;57.95;;;36.20;;
70342;SDS011;57767;42.068;24.752;2022-12-16T06:44:56;55.75;;;35.03;;
70342;SDS011;57767;42.068;24.752;2022-12-16T06:46:17;55.78;;;36.28;;
70342;SDS011;57767;42.068;24.752;2022-12-16T06:47:41;54.78;;;33.95;;
70342;SDS011;57767;42.068;24.752;2022-12-16T06:49:02;60.50;;;33.47;;
70342;SDS011;57767;42.068;24.752;2022-12-16T06:50:22;53.97;;;31.40;;
70342;SDS011;57767;42.068;24.752;2022-12-16T06:51:45;48.70;;;30.73;;
70342;SDS011;57767;42.068;24.752;2022-12-16T06:53:05;52.80;;;33.22;;
70342;SDS011;57767;42.068;24.752;2022-12-16T06:54:26;53.88;;;31.25;;
70342;SDS011;57767;42.068;24.752;2022-12-16T06:55:46;44.75;;;29.70;;
70342;SDS011;57767;42.068;24.752;2022-12-16T06:57:07;51.08;;;31.80;;
70342;SDS011;57767;42.068;24.752;2022-12-16T06:58:27;54.67;;;34.08;;
70342;SDS011;57767;42.068;24.752;2022-12-16T06:59:47;49.03;;;32.63;;
70342;SDS011;57767;42.068;24.752;2022-12-16T07:01:08;53.08;;;32.65;;
70342;SDS011;57767;42.068;24.752;2022-12-16T07:02:29;50.15;;;31.33;;
70342;SDS011;57767;42.068;24.752;2022-12-16T07:03:49;52.20;;;32.63;;
70342;SDS011;57767;42.068;24.752;2022-12-16T07:05:10;49.60;;;32.47;;
70342;SDS011;57767;42.068;24.752;2022-12-16T07:06:30;52.03;;;32.08;;
70342;SDS011;57767;42.068;24.752;2022-12-16T07:07:50;50.55;;;33.72;;
70342;SDS011;57767;42.068;24.752;2022-12-16T07:09:11;53.30;;;34.15;;
70342;SDS011;57767;42.068;24.752;2022-12-16T07:10:31;60.95;;;37.28;;
70342;SDS011;57767;42.068;24.752;2022-12-16T07:11:55;60.05;;;38.20;;
70342;SDS011;57767;42.068;24.752;2022-12-16T07:13:15;59.00;;;36.42;;
70342;SDS011;57767;42.068;24.752;2022-12-16T07:14:36;50.53;;;30.08;;
70342;SDS011;57767;42.068;24.752;2022-12-16T07:15:56;45.08;;;28.85;;
70342;SDS011;57767;42.068;24.752;2022-12-16T07:17:17;43.40;;;29.45;;
70342;SDS011;57767;42.068;24.752;2022-12-16T07:18:37;49.58;;;30.40;;
70342;SDS011;57767;42.068;24.752;2022-12-16T07:19:58;45.63;;;27.77;;
70342;SDS011;57767;42.068;24.752;2022-12-16T07:21:19;48.45;;;28.50;;
70342;SDS011;57767;42.068;24.752;2022-12-16T07:22:43;51.47;;;28.50;;
70342;SDS011;57767;42.068;24.752;2022-12-16T07:24:16;44.38;;;27.38;;